Time,TemperatureF,DewpointF,PressureIn,WindDirection,WindDirectionDegrees,WindSpeedMPH,WindSpeedGustMPH,Humidity,HourlyPrecipIn,Conditions,Clouds,dailyrainin,SoftwareType,DateUTC
2013-04-20 00:00:00,35.8,27.3,29.72,WNW,297,21.0,21.0,71,0.00,,---,0.00,VWS V14.01,2013-04-20 04:00:00,
2013-04-20 00:01:00,35.8,27.3,29.72,WNW,301,16.1,21.9,71,0.00,,---,0.00,VWS V14.01,2013-04-20 04:01:00,
2013-04-20 00:02:00,35.8,27.3,29.72,SW,220,6.3,16.1,71,0.00,,---,0.00,VWS V14.01,2013-04-20 04:02:00,
2013-04-20 00:07:00,35.8,27.3,29.75,SW,214,16.1,16.1,71,0.00,,---,0.00,VWS V14.01,2013-04-20 04:07:00,
2013-04-20 00:12:00,35.8,27.3,29.75,WSW,238,5.4,12.5,71,0.00,,---,0.00,VWS V14.01,2013-04-20 04:12:00,
2013-04-20 00:17:00,35.8,27.3,29.75,SW,225,10.7,10.7,71,0.00,,---,0.00,VWS V14.01,2013-04-20 04:17:00,
2013-04-20 00:22:00,36.0,27.5,29.75,West,266,9.8,16.1,71,0.00,,---,0.00,VWS V14.01,2013-04-20 04:22:00,
2013-04-20 00:27:00,36.0,27.8,29.75,WSW,246,10.7,12.5,72,0.00,,---,0.00,VWS V14.01,2013-04-20 04:27:00,
2013-04-20 00:32:00,36.0,27.8,29.75,SW,229,10.7,10.7,72,0.00,,---,0.00,VWS V14.01,2013-04-20 04:32:00,
2013-04-20 00:37:00,35.8,28.0,29.75,WNW,288,6.3,16.6,73,0.00,,---,0.00,VWS V14.01,2013-04-20 04:37:00,
2013-04-20 00:42:00,35.6,27.8,29.75,NW,323,5.4,5.4,73,0.00,,---,0.00,VWS V14.01,2013-04-20 04:42:00,
2013-04-20 00:47:00,35.4,27.6,29.75,WNW,303,14.3,14.3,73,0.00,,---,0.00,VWS V14.01,2013-04-20 04:47:00,
2013-04-20 00:52:00,34.9,27.8,29.75,NW,316,12.5,23.7,75,0.00,,---,0.00,VWS V14.01,2013-04-20 04:52:00,
2013-04-20 00:57:00,34.0,27.2,29.75,WNW,289,20.1,20.1,76,0.00,,---,0.00,VWS V14.01,2013-04-20 04:57:00,
2013-04-20 01:02:00,33.6,27.5,29.75,WNW,298,13.4,13.4,78,0.00,,---,0.00,VWS V14.01,2013-04-20 05:02:00,
2013-04-20 01:07:00,33.3,27.5,29.78,WNW,292,21.0,21.9,79,0.00,,---,0.00,VWS V14.01,2013-04-20 05:07:00,
2013-04-20 01:13:00,33.1,27.6,29.78,WNW,285,24.6,24.6,80,0.00,,---,0.00,VWS V14.01,2013-04-20 05:13:00,
2013-04-20 01:18:00,32.7,27.2,29.78,WNW,283,17.4,17.4,80,0.00,,---,0.00,VWS V14.01,2013-04-20 05:18:00,
2013-04-20 01:23:00,32.5,27.1,29.78,West,263,7.2,11.6,80,0.00,,---,0.00,VWS V14.01,2013-04-20 05:23:00,
2013-04-20 01:28:00,32.4,27.2,29.78,NNW,330,8.1,8.1,81,0.00,,---,0.00,VWS V14.01,2013-04-20 05:28:00,
2013-04-20 01:33:00,32.4,27.2,29.78,West,271,17.4,17.4,81,0.00,,---,0.00,VWS V14.01,2013-04-20 05:33:00,
2013-04-20 01:38:00,32.2,27.0,29.78,WSW,242,7.2,19.2,81,0.00,,---,0.00,VWS V14.01,2013-04-20 05:38:00,
2013-04-20 01:43:00,32.2,27.0,29.78,West,259,12.5,12.5,81,0.00,,---,0.00,VWS V14.01,2013-04-20 05:43:00,
2013-04-20 01:48:00,32.4,27.2,29.78,SW,236,5.4,8.1,81,0.00,,---,0.00,VWS V14.01,2013-04-20 05:48:00,
2013-04-20 01:53:00,32.4,27.2,29.78,WNW,302,8.1,15.2,81,0.00,,---,0.00,VWS V14.01,2013-04-20 05:53:00,
2013-04-20 01:58:00,32.5,27.4,29.78,WNW,289,15.2,15.2,81,0.00,,---,0.00,VWS V14.01,2013-04-20 05:58:00,
2013-04-20 02:03:00,32.5,27.4,29.78,WSW,238,6.3,7.2,81,0.00,,---,0.00,VWS V14.01,2013-04-20 06:03:00,
2013-04-20 02:08:00,32.5,27.4,29.78,WNW,294,16.1,16.6,81,0.00,,---,0.00,VWS V14.01,2013-04-20 06:08:00,
2013-04-20 02:13:00,32.7,27.2,29.78,WSW,248,5.4,16.1,80,0.00,,---,0.00,VWS V14.01,2013-04-20 06:13:00,
2013-04-20 02:18:00,32.7,27.2,29.78,WNW,294,12.5,12.5,80,0.00,,---,0.00,VWS V14.01,2013-04-20 06:18:00,
2013-04-20 02:23:00,32.7,27.2,29.78,NW,312,17.4,17.4,80,0.00,,---,0.00,VWS V14.01,2013-04-20 06:23:00,
2013-04-20 02:28:00,32.9,27.4,29.78,WSW,237,20.1,20.1,80,0.00,,---,0.00,VWS V14.01,2013-04-20 06:28:00,
2013-04-20 02:33:00,32.9,27.4,29.78,NNW,331,7.2,14.3,80,0.00,,---,0.00,VWS V14.01,2013-04-20 06:33:00,
2013-04-20 02:38:00,33.1,27.3,29.78,SSE,164,7.2,16.1,79,0.00,,---,0.00,VWS V14.01,2013-04-20 06:38:00,
2013-04-20 02:43:00,33.1,27.3,29.78,NW,306,7.2,14.3,79,0.00,,---,0.00,VWS V14.01,2013-04-20 06:43:00,
2013-04-20 02:48:00,33.1,27.3,29.78,WNW,286,15.2,21.0,79,0.00,,---,0.00,VWS V14.01,2013-04-20 06:48:00,
2013-04-20 02:53:00,33.1,27.0,29.78,SW,235,9.8,16.6,78,0.00,,---,0.00,VWS V14.01,2013-04-20 06:53:00,
2013-04-20 02:58:00,33.3,26.8,29.78,WNW,293,8.1,16.1,77,0.00,,---,0.00,VWS V14.01,2013-04-20 06:58:00,
2013-04-20 03:03:00,33.3,26.8,29.78,West,274,14.3,17.4,77,0.00,,---,0.00,VWS V14.01,2013-04-20 07:03:00,
2013-04-20 03:08:00,33.3,26.5,29.78,NW,309,9.8,15.2,76,0.00,,---,0.00,VWS V14.01,2013-04-20 07:08:00,
2013-04-20 03:13:00,33.3,26.5,29.78,West,280,5.4,9.8,76,0.00,,---,0.00,VWS V14.01,2013-04-20 07:13:00,
2013-04-20 03:18:00,33.4,26.7,29.78,NW,315,10.7,11.6,76,0.00,,---,0.00,VWS V14.01,2013-04-20 07:18:00,
2013-04-20 03:23:00,33.4,26.7,29.81,West,268,6.3,16.1,76,0.00,,---,0.00,VWS V14.01,2013-04-20 07:23:00,
2013-04-20 03:28:00,33.4,26.4,29.81,SW,236,16.1,16.6,75,0.00,,---,0.00,VWS V14.01,2013-04-20 07:28:00,
2013-04-20 03:33:00,33.6,25.9,29.81,West,259,10.7,21.0,73,0.00,,---,0.00,VWS V14.01,2013-04-20 07:33:00,
2013-04-20 03:38:00,33.4,25.4,29.81,SW,214,9.8,20.1,72,0.00,,---,0.00,VWS V14.01,2013-04-20 07:38:00,
2013-04-20 03:43:00,33.4,25.4,29.81,WNW,288,8.1,17.4,72,0.00,,---,0.00,VWS V14.01,2013-04-20 07:43:00,
2013-04-20 03:48:00,33.4,25.1,29.81,West,279,14.3,17.4,71,0.00,,---,0.00,VWS V14.01,2013-04-20 07:48:00,
2013-04-20 03:53:00,33.4,24.7,29.81,West,273,11.6,17.4,70,0.00,,---,0.00,VWS V14.01,2013-04-20 07:53:00,
2013-04-20 03:58:00,33.4,24.4,29.81,West,271,21.9,21.9,69,0.00,,---,0.00,VWS V14.01,2013-04-20 07:58:00,
2013-04-20 04:03:00,33.4,24.4,29.81,NW,306,8.1,8.1,69,0.00,,---,0.00,VWS V14.01,2013-04-20 08:03:00,
2013-04-20 04:08:00,33.4,24.7,29.84,North,358,11.6,11.6,70,0.00,,---,0.00,VWS V14.01,2013-04-20 08:08:00,
2013-04-20 04:13:00,33.3,24.2,29.84,NW,307,7.2,16.1,69,0.00,,---,0.00,VWS V14.01,2013-04-20 08:13:00,
2013-04-20 04:18:00,33.1,23.3,29.84,NW,306,16.1,30.0,67,0.00,,---,0.00,VWS V14.01,2013-04-20 08:18:00,
2013-04-20 04:23:00,33.1,22.6,29.84,WNW,298,21.0,30.0,65,0.00,,---,0.00,VWS V14.01,2013-04-20 08:23:00,
2013-04-20 04:28:00,32.9,21.3,29.84,NNE,14,11.6,16.6,62,0.00,,---,0.00,VWS V14.01,2013-04-20 08:28:00,
2013-04-20 04:33:00,32.7,20.8,29.84,NW,319,19.2,20.1,61,0.00,,---,0.00,VWS V14.01,2013-04-20 08:33:00,
2013-04-20 04:38:00,32.7,21.1,29.84,WNW,294,16.6,21.0,62,0.00,,---,0.00,VWS V14.01,2013-04-20 08:38:00,
2013-04-20 04:43:00,32.5,21.0,29.84,NW,315,12.5,21.9,62,0.00,,---,0.00,VWS V14.01,2013-04-20 08:43:00,
2013-04-20 04:48:00,32.5,21.0,29.84,SW,214,11.6,16.1,62,0.00,,---,0.00,VWS V14.01,2013-04-20 08:48:00,
2013-04-20 04:53:00,32.4,20.8,29.84,NNW,342,10.7,17.4,62,0.00,,---,0.00,VWS V14.01,2013-04-20 08:53:00,
2013-04-20 04:58:00,32.2,20.6,29.84,NNW,347,25.5,25.5,62,0.00,,---,0.00,VWS V14.01,2013-04-20 08:58:00,
2013-04-20 05:03:00,32.2,18.7,29.84,NW,321,8.1,30.9,57,0.00,,---,0.00,VWS V14.01,2013-04-20 09:03:00,
2013-04-20 05:08:00,32.2,18.3,29.87,SW,214,11.6,21.9,56,0.00,,---,0.00,VWS V14.01,2013-04-20 09:08:00,
2013-04-20 05:13:00,31.8,17.1,29.87,NNW,348,17.4,30.9,54,0.00,,---,0.00,VWS V14.01,2013-04-20 09:13:00,
2013-04-20 05:18:00,31.8,17.5,29.87,NNW,339,16.6,17.4,55,0.00,,---,0.00,VWS V14.01,2013-04-20 09:18:00,
2013-04-20 05:23:00,31.5,17.2,29.87,NW,324,26.4,26.4,55,0.00,,---,0.00,VWS V14.01,2013-04-20 09:23:00,
2013-04-20 05:28:00,31.3,17.0,29.87,WNW,290,25.5,25.5,55,0.00,,---,0.00,VWS V14.01,2013-04-20 09:28:00,
2013-04-20 05:33:00,31.3,17.0,29.87,NNW,338,12.5,21.9,55,0.00,,---,0.00,VWS V14.01,2013-04-20 09:33:00,
2013-04-20 05:38:00,31.1,16.8,29.87,NNW,328,16.1,16.1,55,0.00,,---,0.00,VWS V14.01,2013-04-20 09:38:00,
2013-04-20 05:43:00,31.1,17.2,29.87,NW,314,9.8,24.6,56,0.00,,---,0.00,VWS V14.01,2013-04-20 09:43:00,
2013-04-20 05:48:00,31.1,17.2,29.87,NW,309,15.2,16.1,56,0.00,,---,0.00,VWS V14.01,2013-04-20 09:48:00,
2013-04-20 05:53:00,31.1,17.2,29.90,WNW,289,16.6,16.6,56,0.00,,---,0.00,VWS V14.01,2013-04-20 09:53:00,
2013-04-20 05:58:00,31.1,17.7,29.90,NNW,345,12.5,16.1,57,0.00,,---,0.00,VWS V14.01,2013-04-20 09:58:00,
2013-04-20 06:04:00,31.1,17.2,29.90,NW,326,11.6,17.4,56,0.00,,---,0.00,VWS V14.01,2013-04-20 10:04:00,
2013-04-20 06:09:00,31.1,16.0,29.90,WNW,291,21.9,21.9,53,0.00,,---,0.00,VWS V14.01,2013-04-20 10:09:00,
2013-04-20 06:14:00,31.1,15.5,29.90,North,355,17.4,27.3,52,0.00,,---,0.00,VWS V14.01,2013-04-20 10:14:00,
2013-04-20 06:19:00,31.3,15.7,29.90,NNW,331,18.3,20.1,52,0.00,,---,0.00,VWS V14.01,2013-04-20 10:19:00,
2013-04-20 06:24:00,31.3,15.3,29.90,West,278,16.1,21.9,51,0.00,,---,0.00,VWS V14.01,2013-04-20 10:24:00,
2013-04-20 06:29:00,31.1,15.1,29.90,NW,314,17.4,30.0,51,0.00,,---,0.00,VWS V14.01,2013-04-20 10:29:00,
2013-04-20 06:34:00,30.9,14.9,29.90,NW,312,21.9,21.9,51,0.00,,---,0.00,VWS V14.01,2013-04-20 10:34:00,
2013-04-20 06:39:00,30.7,14.8,29.93,WNW,295,30.9,30.9,51,0.00,,---,0.00,VWS V14.01,2013-04-20 10:39:00,
2013-04-20 06:44:00,30.6,14.6,29.93,NW,326,34.0,43.8,51,0.00,,---,0.00,VWS V14.01,2013-04-20 10:44:00,
2013-04-20 06:49:00,30.4,14.4,29.93,West,276,15.2,21.0,51,0.00,,---,0.00,VWS V14.01,2013-04-20 10:49:00,
2013-04-20 06:54:00,30.2,14.3,29.93,NW,312,22.8,26.4,51,0.00,,---,0.00,VWS V14.01,2013-04-20 10:54:00,
2013-04-20 06:59:00,30.0,14.1,29.93,NNW,336,16.1,21.9,51,0.00,,---,0.00,VWS V14.01,2013-04-20 10:59:00,
2013-04-20 07:04:00,29.8,13.9,29.93,NW,321,16.6,21.9,51,0.00,,---,0.00,VWS V14.01,2013-04-20 11:04:00,
2013-04-20 07:09:00,29.7,13.8,29.93,West,269,15.2,25.5,51,0.00,,---,0.00,VWS V14.01,2013-04-20 11:09:00,
2013-04-20 07:14:00,29.7,13.8,29.93,WNW,298,11.6,26.4,51,0.00,,---,0.00,VWS V14.01,2013-04-20 11:14:00,
2013-04-20 07:19:00,29.7,13.8,29.93,NW,315,21.9,21.9,51,0.00,,---,0.00,VWS V14.01,2013-04-20 11:19:00,
2013-04-20 07:24:00,29.7,13.8,29.96,WSW,252,10.7,25.5,51,0.00,,---,0.00,VWS V14.01,2013-04-20 11:24:00,
2013-04-20 07:29:00,29.5,13.6,29.96,WNW,299,21.0,26.4,51,0.00,,---,0.00,VWS V14.01,2013-04-20 11:29:00,
2013-04-20 07:34:00,29.5,13.1,29.96,NNW,330,17.4,17.4,50,0.00,,---,0.00,VWS V14.01,2013-04-20 11:34:00,
2013-04-20 07:39:00,29.5,12.7,29.96,NNW,348,32.7,34.9,49,0.00,,---,0.00,VWS V14.01,2013-04-20 11:39:00,
2013-04-20 07:44:00,29.5,11.8,29.96,WSW,251,28.2,30.9,47,0.00,,---,0.00,VWS V14.01,2013-04-20 11:44:00,
2013-04-20 07:49:00,29.3,11.6,29.96,WNW,295,17.4,26.4,47,0.00,,---,0.00,VWS V14.01,2013-04-20 11:49:00,
2013-04-20 07:54:00,29.3,11.6,29.99,North,352,11.6,17.4,47,0.00,,---,0.00,VWS V14.01,2013-04-20 11:54:00,
2013-04-20 07:59:00,29.3,11.6,29.99,NNW,328,27.3,38.5,47,0.00,,---,0.00,VWS V14.01,2013-04-20 11:59:00,
2013-04-20 08:04:00,29.3,11.6,29.99,NNW,328,16.6,21.9,47,0.00,,---,0.00,VWS V14.01,2013-04-20 12:04:00,
2013-04-20 08:09:00,29.5,11.8,29.99,NW,305,16.6,25.5,47,0.00,,---,0.00,VWS V14.01,2013-04-20 12:09:00,
2013-04-20 08:14:00,29.5,11.3,29.99,NW,322,11.6,16.1,46,0.00,,---,0.00,VWS V14.01,2013-04-20 12:14:00,
2013-04-20 08:19:00,29.8,12.1,29.99,NW,304,20.1,24.6,47,0.00,,---,0.00,VWS V14.01,2013-04-20 12:19:00,
2013-04-20 08:24:00,29.8,11.1,30.02,NW,312,17.4,26.4,45,0.00,,---,0.00,VWS V14.01,2013-04-20 12:24:00,
2013-04-20 08:29:00,30.0,11.3,30.02,NNW,333,29.1,39.4,45,0.00,,---,0.00,VWS V14.01,2013-04-20 12:29:00,
2013-04-20 08:34:00,29.8,11.1,30.02,WNW,283,24.6,34.9,45,0.00,,---,0.00,VWS V14.01,2013-04-20 12:34:00,
2013-04-20 08:39:00,29.5,10.8,30.02,NW,313,21.9,21.9,45,0.00,,---,0.00,VWS V14.01,2013-04-20 12:39:00,
2013-04-20 08:44:00,29.7,10.9,30.02,North,360,12.5,24.6,45,0.00,,---,0.00,VWS V14.01,2013-04-20 12:44:00,
2013-04-20 08:49:00,29.8,11.1,30.02,NNW,338,21.9,26.4,45,0.00,,---,0.00,VWS V14.01,2013-04-20 12:49:00,
2013-04-20 08:54:00,30.2,11.4,30.02,NW,326,20.1,20.1,45,0.00,,---,0.00,VWS V14.01,2013-04-20 12:54:00,
2013-04-20 09:00:00,30.6,11.8,30.02,WNW,297,15.2,15.2,45,0.00,,---,0.00,VWS V14.01,2013-04-20 13:00:00,
2013-04-20 09:05:00,30.7,11.4,30.02,NW,320,27.3,27.3,44,0.00,,---,0.00,VWS V14.01,2013-04-20 13:05:00,
2013-04-20 09:10:00,30.6,11.2,30.02,NW,312,16.6,16.6,44,0.00,,---,0.00,VWS V14.01,2013-04-20 13:10:00,
2013-04-20 09:15:00,30.6,11.2,30.02,NW,318,23.7,30.9,44,0.00,,---,0.00,VWS V14.01,2013-04-20 13:15:00,
2013-04-20 09:20:00,31.1,11.8,30.02,NW,309,11.6,21.9,44,0.00,,---,0.00,VWS V14.01,2013-04-20 13:20:00,
2013-04-20 09:25:00,31.3,11.9,30.05,NNE,33,17.4,17.4,44,0.00,,---,0.00,VWS V14.01,2013-04-20 13:25:00,
2013-04-20 09:30:00,31.5,12.1,30.05,NW,320,12.5,17.4,44,0.00,,---,0.00,VWS V14.01,2013-04-20 13:30:00,
2013-04-20 09:35:00,31.3,11.9,30.05,WNW,295,24.6,33.6,44,0.00,,---,0.00,VWS V14.01,2013-04-20 13:35:00,
2013-04-20 09:40:00,31.1,11.8,30.05,NNW,329,21.0,21.9,44,0.00,,---,0.00,VWS V14.01,2013-04-20 13:40:00,
2013-04-20 09:45:00,31.3,12.4,30.05,NNW,341,10.7,17.4,45,0.00,,---,0.00,VWS V14.01,2013-04-20 13:45:00,
2013-04-20 09:50:00,31.6,12.8,30.05,NNW,328,9.8,19.2,45,0.00,,---,0.00,VWS V14.01,2013-04-20 13:50:00,
2013-04-20 09:55:00,31.6,12.8,30.08,West,264,12.5,21.9,45,0.00,,---,0.00,VWS V14.01,2013-04-20 13:55:00,
2013-04-20 10:00:00,31.6,12.8,30.08,NW,324,10.7,25.5,45,0.00,,---,0.00,VWS V14.01,2013-04-20 14:00:00,
2013-04-20 10:05:00,31.5,12.6,30.08,WNW,289,16.1,16.1,45,0.00,,---,0.00,VWS V14.01,2013-04-20 14:05:00,
2013-04-20 10:10:00,31.5,12.6,30.08,West,281,25.5,25.5,45,0.00,,---,0.00,VWS V14.01,2013-04-20 14:10:00,
2013-04-20 10:16:00,31.8,12.9,30.08,NW,323,25.5,30.0,45,0.00,,---,0.00,VWS V14.01,2013-04-20 14:16:00,
2013-04-20 10:21:00,32.2,13.2,30.08,NW,321,20.1,20.1,45,0.00,,---,0.00,VWS V14.01,2013-04-20 14:21:00,
2013-04-20 10:26:00,32.4,13.4,30.08,NW,315,21.9,25.5,45,0.00,,---,0.00,VWS V14.01,2013-04-20 14:26:00,
2013-04-20 10:31:00,32.7,13.7,30.08,NNW,345,8.1,16.6,45,0.00,,---,0.00,VWS V14.01,2013-04-20 14:31:00,
2013-04-20 10:36:00,33.1,14.1,30.08,NNW,335,25.5,25.5,45,0.00,,---,0.00,VWS V14.01,2013-04-20 14:36:00,
2013-04-20 10:41:00,33.6,14.6,30.08,WNW,292,16.1,26.4,45,0.00,,---,0.00,VWS V14.01,2013-04-20 14:41:00,
2013-04-20 10:46:00,33.8,14.2,30.08,WNW,293,10.7,16.1,44,0.00,,---,0.00,VWS V14.01,2013-04-20 14:46:00,
2013-04-20 10:51:00,34.0,14.9,30.08,WSW,256,11.6,17.4,45,0.00,,---,0.00,VWS V14.01,2013-04-20 14:51:00,
2013-04-20 10:56:00,34.5,15.4,30.11,NW,324,9.8,9.8,45,0.00,,---,0.00,VWS V14.01,2013-04-20 14:56:00,
2013-04-20 11:01:00,34.9,15.2,30.11,North,9,11.6,12.5,44,0.00,,---,0.00,VWS V14.01,2013-04-20 15:01:00,
2013-04-20 11:06:00,35.1,15.4,30.11,WSW,241,12.5,17.4,44,0.00,,---,0.00,VWS V14.01,2013-04-20 15:06:00,
2013-04-20 11:12:00,35.2,15.5,30.11,WNW,291,15.2,18.3,44,0.00,,---,0.00,VWS V14.01,2013-04-20 15:12:00,
2013-04-20 11:17:00,35.2,15.5,30.11,NW,319,17.4,21.9,44,0.00,,---,0.00,VWS V14.01,2013-04-20 15:17:00,
2013-04-20 11:22:00,35.2,15.5,30.11,NW,314,8.9,17.4,44,0.00,,---,0.00,VWS V14.01,2013-04-20 15:22:00,
2013-04-20 11:27:00,35.6,15.9,30.11,NW,304,14.3,17.4,44,0.00,,---,0.00,VWS V14.01,2013-04-20 15:27:00,
2013-04-20 11:32:00,36.0,16.2,30.11,WNW,303,21.0,21.0,44,0.00,,---,0.00,VWS V14.01,2013-04-20 15:32:00,
2013-04-20 11:37:00,35.8,15.5,30.11,NW,318,16.1,25.5,43,0.00,,---,0.00,VWS V14.01,2013-04-20 15:37:00,
2013-04-20 11:42:00,36.1,16.4,30.11,NW,310,11.6,16.1,44,0.00,,---,0.00,VWS V14.01,2013-04-20 15:42:00,
2013-04-20 11:47:00,36.3,16.0,30.11,NW,306,16.6,19.2,43,0.00,,---,0.00,VWS V14.01,2013-04-20 15:47:00,
2013-04-20 11:52:00,36.0,15.6,30.14,NW,313,21.0,21.0,43,0.00,,---,0.00,VWS V14.01,2013-04-20 15:52:00,
2013-04-20 11:57:00,36.1,15.8,30.14,NW,308,16.1,17.4,43,0.00,,---,0.00,VWS V14.01,2013-04-20 15:57:00,
2013-04-20 12:02:00,36.5,16.1,30.14,NW,318,10.7,12.5,43,0.00,,---,0.00,VWS V14.01,2013-04-20 16:02:00,
2013-04-20 12:08:00,36.5,16.1,30.14,NW,315,9.8,16.1,43,0.00,,---,0.00,VWS V14.01,2013-04-20 16:08:00,
2013-04-20 12:13:00,36.7,16.3,30.14,WNW,288,12.5,21.9,43,0.00,,---,0.00,VWS V14.01,2013-04-20 16:13:00,
2013-04-20 12:18:00,36.7,16.3,30.14,WNW,299,11.6,16.1,43,0.00,,---,0.00,VWS V14.01,2013-04-20 16:18:00,
2013-04-20 12:23:00,37.0,16.6,30.14,NNW,327,16.6,21.0,43,0.00,,---,0.00,VWS V14.01,2013-04-20 16:23:00,
2013-04-20 12:28:00,37.0,16.6,30.14,NW,314,7.2,12.5,43,0.00,,---,0.00,VWS V14.01,2013-04-20 16:28:00,
2013-04-20 12:33:00,36.9,16.5,30.14,NNW,327,15.2,20.1,43,0.00,,---,0.00,VWS V14.01,2013-04-20 16:33:00,
2013-04-20 12:38:00,37.0,16.6,30.14,West,281,21.9,22.8,43,0.00,,---,0.00,VWS V14.01,2013-04-20 16:38:00,
2013-04-20 12:43:00,36.7,16.3,30.14,NNW,334,17.4,24.6,43,0.00,,---,0.00,VWS V14.01,2013-04-20 16:43:00,
2013-04-20 12:48:00,36.0,15.6,30.14,NW,311,21.0,26.4,43,0.00,,---,0.00,VWS V14.01,2013-04-20 16:48:00,
2013-04-20 12:53:00,36.0,15.6,30.16,West,268,21.9,21.9,43,0.00,,---,0.00,VWS V14.01,2013-04-20 16:53:00,
2013-04-20 12:58:00,36.9,17.0,30.16,WNW,292,12.5,16.1,44,0.00,,---,0.00,VWS V14.01,2013-04-20 16:58:00,
2013-04-20 13:03:00,37.0,16.6,30.16,WNW,282,17.4,21.9,43,0.00,,---,0.00,VWS V14.01,2013-04-20 17:03:00,
2013-04-20 13:08:00,36.9,15.9,30.16,NNW,327,21.9,21.9,42,0.00,,---,0.00,VWS V14.01,2013-04-20 17:08:00,
2013-04-20 13:13:00,37.4,16.4,30.16,NW,316,12.5,20.1,42,0.00,,---,0.00,VWS V14.01,2013-04-20 17:13:00,
2013-04-20 13:18:00,37.8,16.2,30.16,NNW,334,16.6,20.1,41,0.00,,---,0.00,VWS V14.01,2013-04-20 17:18:00,
2013-04-20 13:24:00,37.6,16.0,30.16,West,264,14.3,17.4,41,0.00,,---,0.00,VWS V14.01,2013-04-20 17:24:00,
2013-04-20 13:29:00,37.4,15.9,30.16,NNW,333,15.2,16.1,41,0.00,,---,0.00,VWS V14.01,2013-04-20 17:29:00,
2013-04-20 13:34:00,37.4,15.9,30.16,NW,319,20.1,30.9,41,0.00,,---,0.00,VWS V14.01,2013-04-20 17:34:00,
2013-04-20 13:39:00,37.4,15.9,30.16,NW,307,24.6,24.6,41,0.00,,---,0.00,VWS V14.01,2013-04-20 17:39:00,
2013-04-20 13:44:00,37.6,16.6,30.16,WNW,284,16.1,17.4,42,0.00,,---,0.00,VWS V14.01,2013-04-20 17:44:00,
2013-04-20 13:49:00,37.9,16.4,30.16,NNW,347,21.9,26.4,41,0.00,,---,0.00,VWS V14.01,2013-04-20 17:49:00,
2013-04-20 13:54:00,37.4,15.9,30.16,NW,318,16.1,18.3,41,0.00,,---,0.00,VWS V14.01,2013-04-20 17:54:00,
2013-04-20 13:59:00,37.2,16.3,30.16,North,1,21.9,25.5,42,0.00,,---,0.00,VWS V14.01,2013-04-20 17:59:00,
2013-04-20 14:04:00,37.6,16.6,30.16,West,270,16.1,16.1,42,0.00,,---,0.00,VWS V14.01,2013-04-20 18:04:00,
2013-04-20 14:09:00,37.9,16.4,30.19,NW,315,18.3,21.0,41,0.00,,---,0.00,VWS V14.01,2013-04-20 18:09:00,
2013-04-20 14:14:00,37.6,16.0,30.19,NNW,340,21.0,21.0,41,0.00,,---,0.00,VWS V14.01,2013-04-20 18:14:00,
2013-04-20 14:19:00,37.6,16.6,30.19,West,270,16.1,16.1,42,0.00,,---,0.00,VWS V14.01,2013-04-20 18:19:00,
2013-04-20 14:25:00,37.8,16.2,30.19,North,356,16.6,21.9,41,0.00,,---,0.00,VWS V14.01,2013-04-20 18:25:00,
2013-04-20 14:30:00,37.8,16.8,30.19,NW,304,7.2,10.7,42,0.00,,---,0.00,VWS V14.01,2013-04-20 18:30:00,
2013-04-20 14:35:00,37.8,16.8,30.19,North,1,26.4,26.4,42,0.00,,---,0.00,VWS V14.01,2013-04-20 18:35:00,
2013-04-20 14:40:00,37.6,16.6,30.19,NNW,336,15.2,16.6,42,0.00,,---,0.00,VWS V14.01,2013-04-20 18:40:00,
2013-04-20 14:45:00,37.9,16.4,30.19,NW,324,20.1,26.4,41,0.00,,---,0.00,VWS V14.01,2013-04-20 18:45:00,
2013-04-20 14:50:00,37.9,16.4,30.19,NW,305,21.9,21.9,41,0.00,,---,0.00,VWS V14.01,2013-04-20 18:50:00,
2013-04-20 14:55:00,37.8,16.8,30.19,NW,315,21.0,26.4,42,0.00,,---,0.00,VWS V14.01,2013-04-20 18:55:00,
2013-04-20 15:00:00,37.8,16.2,30.19,SW,232,16.1,16.6,41,0.00,,---,0.00,VWS V14.01,2013-04-20 19:00:00,
2013-04-20 15:05:00,37.8,16.8,30.19,WSW,251,8.1,12.5,42,0.00,,---,0.00,VWS V14.01,2013-04-20 19:05:00,
2013-04-20 15:10:00,37.9,16.9,30.19,NW,312,11.6,19.2,42,0.00,,---,0.00,VWS V14.01,2013-04-20 19:10:00,
2013-04-20 15:15:00,38.1,17.1,30.19,WNW,294,16.6,16.6,42,0.00,,---,0.00,VWS V14.01,2013-04-20 19:15:00,
2013-04-20 15:20:00,38.3,17.2,30.19,WNW,302,12.5,12.5,42,0.00,,---,0.00,VWS V14.01,2013-04-20 19:20:00,
2013-04-20 15:25:00,38.5,17.4,30.22,WNW,294,9.8,24.6,42,0.00,,---,0.00,VWS V14.01,2013-04-20 19:25:00,
2013-04-20 15:30:00,38.5,17.4,30.22,NW,308,15.2,15.2,42,0.00,,---,0.00,VWS V14.01,2013-04-20 19:30:00,
2013-04-20 15:36:00,38.5,17.4,30.22,NW,320,12.5,12.5,42,0.00,,---,0.00,VWS V14.01,2013-04-20 19:36:00,
2013-04-20 15:41:00,38.5,17.9,30.22,NNW,342,16.6,17.4,43,0.00,,---,0.00,VWS V14.01,2013-04-20 19:41:00,
2013-04-20 15:46:00,38.7,17.6,30.22,NW,321,21.0,25.5,42,0.00,,---,0.00,VWS V14.01,2013-04-20 19:46:00,
2013-04-20 15:51:00,38.8,17.7,30.22,NNW,345,10.7,16.6,42,0.00,,---,0.00,VWS V14.01,2013-04-20 19:51:00,
2013-04-20 15:56:00,38.8,17.7,30.22,West,272,17.4,20.1,42,0.00,,---,0.00,VWS V14.01,2013-04-20 19:56:00,
2013-04-20 16:01:00,38.7,17.6,30.22,SW,227,9.8,12.5,42,0.00,,---,0.00,VWS V14.01,2013-04-20 20:01:00,
2013-04-20 16:06:00,38.8,17.7,30.22,WNW,297,6.3,17.4,42,0.00,,---,0.00,VWS V14.01,2013-04-20 20:06:00,
2013-04-20 16:11:00,39.4,18.2,30.22,WSW,254,8.1,10.7,42,0.00,,---,0.00,VWS V14.01,2013-04-20 20:11:00,
2013-04-20 16:16:00,39.7,18.5,30.22,NNW,344,21.9,21.9,42,0.00,,---,0.00,VWS V14.01,2013-04-20 20:16:00,
2013-04-20 16:21:00,39.2,17.5,30.22,WNW,294,15.2,16.6,41,0.00,,---,0.00,VWS V14.01,2013-04-20 20:21:00,
2013-04-20 16:26:00,38.7,17.6,30.22,NNW,341,8.1,8.1,42,0.00,,---,0.00,VWS V14.01,2013-04-20 20:26:00,
2013-04-20 16:31:00,38.7,17.6,30.22,West,277,17.4,20.1,42,0.00,,---,0.00,VWS V14.01,2013-04-20 20:31:00,
2013-04-20 16:36:00,39.0,17.9,30.22,NW,311,16.1,16.1,42,0.00,,---,0.00,VWS V14.01,2013-04-20 20:36:00,
2013-04-20 16:41:00,39.2,17.5,30.22,WSW,238,11.6,12.5,41,0.00,,---,0.00,VWS V14.01,2013-04-20 20:41:00,
2013-04-20 16:46:00,39.2,18.0,30.22,NW,322,21.9,21.9,42,0.00,,---,0.00,VWS V14.01,2013-04-20 20:46:00,
2013-04-20 16:51:00,39.4,18.2,30.22,NNW,345,10.7,16.1,42,0.00,,---,0.00,VWS V14.01,2013-04-20 20:51:00,
2013-04-20 16:57:00,39.2,18.0,30.25,NW,317,12.5,16.1,42,0.00,,---,0.00,VWS V14.01,2013-04-20 20:57:00,
2013-04-20 17:02:00,39.4,18.2,30.25,West,279,21.9,21.9,42,0.00,,---,0.00,VWS V14.01,2013-04-20 21:02:00,
2013-04-20 17:07:00,39.7,18.0,30.25,NW,306,10.7,11.6,41,0.00,,---,0.00,VWS V14.01,2013-04-20 21:07:00,
2013-04-20 17:12:00,39.4,17.7,30.25,NW,318,11.6,15.2,41,0.00,,---,0.00,VWS V14.01,2013-04-20 21:12:00,
2013-04-20 17:17:00,39.6,17.8,30.25,North,349,15.2,17.4,41,0.00,,---,0.00,VWS V14.01,2013-04-20 21:17:00,
2013-04-20 17:22:00,39.4,17.1,30.25,WNW,289,10.7,21.9,40,0.00,,---,0.00,VWS V14.01,2013-04-20 21:22:00,
2013-04-20 17:27:00,39.0,16.8,30.25,NNW,347,17.4,21.9,40,0.00,,---,0.00,VWS V14.01,2013-04-20 21:27:00,
2013-04-20 17:32:00,38.8,17.2,30.25,WNW,290,16.1,21.9,41,0.00,,---,0.00,VWS V14.01,2013-04-20 21:32:00,
2013-04-20 17:37:00,38.8,17.2,30.25,NW,326,15.2,21.9,41,0.00,,---,0.00,VWS V14.01,2013-04-20 21:37:00,
2013-04-20 17:42:00,38.5,16.8,30.25,NW,313,12.5,21.9,41,0.00,,---,0.00,VWS V14.01,2013-04-20 21:42:00,
2013-04-20 17:47:00,38.3,16.7,30.25,North,2,11.6,20.1,41,0.00,,---,0.00,VWS V14.01,2013-04-20 21:47:00,
2013-04-20 17:52:00,38.5,16.3,30.25,West,281,10.7,16.1,40,0.00,,---,0.00,VWS V14.01,2013-04-20 21:52:00,
2013-04-20 17:57:00,38.8,17.2,30.25,NNW,332,7.2,7.2,41,0.00,,---,0.00,VWS V14.01,2013-04-20 21:57:00,
2013-04-20 18:02:00,38.7,17.0,30.25,WNW,300,15.2,21.9,41,0.00,,---,0.00,VWS V14.01,2013-04-20 22:02:00,
2013-04-20 18:07:00,38.5,16.8,30.28,NW,324,15.2,15.2,41,0.00,,---,0.00,VWS V14.01,2013-04-20 22:07:00,
2013-04-20 18:12:00,38.1,16.5,30.28,North,2,12.5,24.6,41,0.00,,---,0.00,VWS V14.01,2013-04-20 22:12:00,
2013-04-20 18:17:00,37.8,16.2,30.28,NW,314,13.4,13.4,41,0.00,,---,0.00,VWS V14.01,2013-04-20 22:17:00,
2013-04-20 18:23:00,37.6,16.0,30.28,NW,316,17.4,20.1,41,0.00,,---,0.00,VWS V14.01,2013-04-20 22:23:00,
2013-04-20 18:28:00,37.4,15.9,30.28,WNW,299,16.1,16.1,41,0.00,,---,0.00,VWS V14.01,2013-04-20 22:28:00,
2013-04-20 18:33:00,37.2,16.3,30.28,NW,320,7.2,11.6,42,0.00,,---,0.00,VWS V14.01,2013-04-20 22:33:00,
2013-04-20 18:38:00,37.2,16.3,30.28,WNW,300,11.6,17.4,42,0.00,,---,0.00,VWS V14.01,2013-04-20 22:38:00,
2013-04-20 18:43:00,37.4,16.4,30.28,NW,310,5.4,11.6,42,0.00,,---,0.00,VWS V14.01,2013-04-20 22:43:00,
2013-04-20 18:48:00,37.4,16.4,30.28,WNW,299,16.1,16.6,42,0.00,,---,0.00,VWS V14.01,2013-04-20 22:48:00,
2013-04-20 18:53:00,37.4,15.9,30.28,NW,307,16.6,17.4,41,0.00,,---,0.00,VWS V14.01,2013-04-20 22:53:00,
2013-04-20 18:58:00,37.2,15.7,30.28,NW,304,17.4,21.9,41,0.00,,---,0.00,VWS V14.01,2013-04-20 22:58:00,
2013-04-20 19:03:00,37.0,16.1,30.28,NNW,340,15.2,17.4,42,0.00,,---,0.00,VWS V14.01,2013-04-20 23:03:00,
2013-04-20 19:08:00,37.0,16.1,30.28,West,273,10.7,17.4,42,0.00,,---,0.00,VWS V14.01,2013-04-20 23:08:00,
2013-04-20 19:13:00,36.9,15.9,30.28,NW,304,10.7,13.4,42,0.00,,---,0.00,VWS V14.01,2013-04-20 23:13:00,
2013-04-20 19:18:00,36.7,15.8,30.28,WNW,283,12.5,12.5,42,0.00,,---,0.00,VWS V14.01,2013-04-20 23:18:00,
2013-04-20 19:23:00,36.5,15.6,30.31,WNW,296,11.6,16.1,42,0.00,,---,0.00,VWS V14.01,2013-04-20 23:23:00,
2013-04-20 19:29:00,36.5,15.6,30.31,WNW,300,10.7,10.7,42,0.00,,---,0.00,VWS V14.01,2013-04-20 23:29:00,
2013-04-20 19:34:00,36.3,15.4,30.31,NW,319,15.2,20.1,42,0.00,,---,0.00,VWS V14.01,2013-04-20 23:34:00,
2013-04-20 19:39:00,36.3,15.4,30.31,NW,313,8.1,16.6,42,0.00,,---,0.00,VWS V14.01,2013-04-20 23:39:00,
2013-04-20 19:44:00,36.3,15.4,30.31,North,351,12.5,12.5,42,0.00,,---,0.00,VWS V14.01,2013-04-20 23:44:00,
2013-04-20 19:49:00,36.1,15.3,30.31,NW,325,8.1,12.5,42,0.00,,---,0.00,VWS V14.01,2013-04-20 23:49:00,
2013-04-20 19:54:00,36.1,15.3,30.31,West,274,10.7,11.6,42,0.00,,---,0.00,VWS V14.01,2013-04-20 23:54:00,
2013-04-20 19:59:00,36.0,15.1,30.31,WNW,292,9.8,15.2,42,0.00,,---,0.00,VWS V14.01,2013-04-20 23:59:00,
2013-04-20 20:04:00,35.8,14.9,30.31,WNW,290,10.7,12.5,42,0.00,,---,0.00,VWS V14.01,2013-04-21 00:04:00,
2013-04-20 20:09:00,35.8,14.9,30.31,NNW,330,10.7,10.7,42,0.00,,---,0.00,VWS V14.01,2013-04-21 00:09:00,
2013-04-20 20:14:00,35.8,14.9,30.31,NW,325,6.3,7.2,42,0.00,,---,0.00,VWS V14.01,2013-04-21 00:14:00,
2013-04-20 20:19:00,35.8,15.5,30.31,WSW,245,8.1,8.1,43,0.00,,---,0.00,VWS V14.01,2013-04-21 00:19:00,
2013-04-20 20:24:00,35.6,14.8,30.34,NNW,343,15.2,17.4,42,0.00,,---,0.00,VWS V14.01,2013-04-21 00:24:00,
2013-04-20 20:29:00,35.4,15.2,30.34,NNW,343,10.7,10.7,43,0.00,,---,0.00,VWS V14.01,2013-04-21 00:29:00,
2013-04-20 20:34:00,35.1,14.8,30.34,NNW,328,9.8,9.8,43,0.00,,---,0.00,VWS V14.01,2013-04-21 00:34:00,
2013-04-20 20:40:00,35.1,14.8,30.34,NW,314,5.4,5.4,43,0.00,,---,0.00,VWS V14.01,2013-04-21 00:40:00,
2013-04-20 20:45:00,34.9,14.7,30.34,NW,314,7.2,7.2,43,0.00,,---,0.00,VWS V14.01,2013-04-21 00:45:00,
2013-04-20 20:50:00,34.5,14.3,30.34,NW,309,9.8,10.7,43,0.00,,---,0.00,VWS V14.01,2013-04-21 00:50:00,
2013-04-20 20:55:00,34.3,14.2,30.34,NW,323,7.2,9.8,43,0.00,,---,0.00,VWS V14.01,2013-04-21 00:55:00,
2013-04-20 21:00:00,34.2,14.0,30.34,NW,309,8.1,8.1,43,0.00,,---,0.00,VWS V14.01,2013-04-21 01:00:00,
2013-04-20 21:05:00,34.0,13.9,30.34,NW,324,10.7,10.7,43,0.00,,---,0.00,VWS V14.01,2013-04-21 01:05:00,
2013-04-20 21:10:00,33.8,13.7,30.34,NNW,329,5.4,7.2,43,0.00,,---,0.00,VWS V14.01,2013-04-21 01:10:00,
2013-04-20 21:15:00,33.8,14.2,30.34,NW,309,5.4,8.1,44,0.00,,---,0.00,VWS V14.01,2013-04-21 01:15:00,
2013-04-20 21:20:00,33.6,14.1,30.34,NW,309,5.4,5.4,44,0.00,,---,0.00,VWS V14.01,2013-04-21 01:20:00,
2013-04-20 21:25:00,33.4,13.9,30.37,NW,325,6.3,6.3,44,0.00,,---,0.00,VWS V14.01,2013-04-21 01:25:00,
2013-04-20 21:30:00,33.3,14.2,30.37,NW,315,4.5,4.5,45,0.00,,---,0.00,VWS V14.01,2013-04-21 01:30:00,
2013-04-20 21:35:00,33.1,14.1,30.37,NW,319,7.2,7.2,45,0.00,,---,0.00,VWS V14.01,2013-04-21 01:35:00,
2013-04-20 21:41:00,32.9,13.9,30.37,NW,318,0.0,0.0,45,0.00,,---,0.00,VWS V14.01,2013-04-21 01:41:00,
2013-04-20 21:46:00,32.7,14.2,30.37,NW,318,0.0,5.4,46,0.00,,---,0.00,VWS V14.01,2013-04-21 01:46:00,
2013-04-20 21:51:00,32.5,14.1,30.37,NNW,335,0.0,0.0,46,0.00,,---,0.00,VWS V14.01,2013-04-21 01:51:00,
2013-04-20 21:56:00,32.4,13.9,30.37,NNW,335,0.0,0.0,46,0.00,,---,0.00,VWS V14.01,2013-04-21 01:56:00,
2013-04-20 22:01:00,32.2,14.2,30.37,NNW,335,0.0,0.0,47,0.00,,---,0.00,VWS V14.01,2013-04-21 02:01:00,
2013-04-20 22:06:00,31.8,13.9,30.37,NNW,335,0.0,0.0,47,0.00,,---,0.00,VWS V14.01,2013-04-21 02:06:00,
2013-04-20 22:11:00,31.5,13.6,30.37,NNW,335,0.0,0.0,47,0.00,,---,0.00,VWS V14.01,2013-04-21 02:11:00,
2013-04-20 22:16:00,31.1,13.2,30.37,NNW,335,0.0,0.0,47,0.00,,---,0.00,VWS V14.01,2013-04-21 02:16:00,
2013-04-20 22:21:00,31.1,13.7,30.37,NNW,335,0.0,0.0,48,0.00,,---,0.00,VWS V14.01,2013-04-21 02:21:00,
2013-04-20 22:26:00,30.6,13.2,30.40,NNW,335,0.0,0.0,48,0.00,,---,0.00,VWS V14.01,2013-04-21 02:26:00,
2013-04-20 22:31:00,30.4,13.1,30.40,NNW,335,0.0,0.0,48,0.00,,---,0.00,VWS V14.01,2013-04-21 02:31:00,
2013-04-20 22:36:00,30.2,13.4,30.40,NNW,335,0.0,0.0,49,0.00,,---,0.00,VWS V14.01,2013-04-21 02:36:00,
2013-04-20 22:42:00,30.0,13.2,30.40,NNW,335,0.0,0.0,49,0.00,,---,0.00,VWS V14.01,2013-04-21 02:42:00,
2013-04-20 22:47:00,29.8,13.5,30.40,NNW,335,0.0,0.0,50,0.00,,---,0.00,VWS V14.01,2013-04-21 02:47:00,
2013-04-20 22:52:00,29.7,13.3,30.40,NNW,335,0.0,0.0,50,0.00,,---,0.00,VWS V14.01,2013-04-21 02:52:00,
2013-04-20 22:57:00,29.5,13.6,30.40,NNW,335,0.0,0.0,51,0.00,,---,0.00,VWS V14.01,2013-04-21 02:57:00,
2013-04-20 23:02:00,29.3,13.4,30.40,NNW,335,0.0,0.0,51,0.00,,---,0.00,VWS V14.01,2013-04-21 03:02:00,
2013-04-20 23:07:00,29.1,13.3,30.40,NNW,335,0.0,0.0,51,0.00,,---,0.00,VWS V14.01,2013-04-21 03:07:00,
2013-04-20 23:12:00,29.1,13.3,30.40,NNW,335,0.0,0.0,51,0.00,,---,0.00,VWS V14.01,2013-04-21 03:12:00,
2013-04-20 23:17:00,28.9,13.1,30.40,NNW,335,0.0,0.0,51,0.00,,---,0.00,VWS V14.01,2013-04-21 03:17:00,
2013-04-20 23:22:00,28.8,12.9,30.40,NNW,335,0.0,0.0,51,0.00,,---,0.00,VWS V14.01,2013-04-21 03:22:00,
2013-04-20 23:28:00,28.8,13.4,30.40,NNW,335,0.0,0.0,52,0.00,,---,0.00,VWS V14.01,2013-04-21 03:28:00,
2013-04-20 23:33:00,28.6,13.2,30.40,NNW,335,0.0,0.0,52,0.00,,---,0.00,VWS V14.01,2013-04-21 03:33:00,
2013-04-20 23:38:00,28.6,13.2,30.40,NNW,335,0.0,0.0,52,0.00,,---,0.00,VWS V14.01,2013-04-21 03:38:00,
2013-04-20 23:43:00,28.4,13.5,30.40,NNW,335,0.0,0.0,53,0.00,,---,0.00,VWS V14.01,2013-04-21 03:43:00,
2013-04-20 23:48:00,28.4,13.5,30.40,NNW,335,0.0,0.0,53,0.00,,---,0.00,VWS V14.01,2013-04-21 03:48:00,
2013-04-20 23:53:00,28.2,13.3,30.43,NNW,335,0.0,0.0,53,0.00,,---,0.00,VWS V14.01,2013-04-21 03:53:00,
2013-04-20 23:58:00,28.0,13.6,30.43,NNW,335,0.0,0.0,54,0.00,,---,0.00,VWS V14.01,2013-04-21 03:58:00,